sensor_id;sensor_type;location;lat;lon;timestamp;P1;durP1;ratioP1;P2;durP2;ratioP2
15256;SDS011;7731;50.720;6.912;2023-03-31T00:02:06;4.70;;;1.40;;
15256;SDS011;7731;50.720;6.912;2023-03-31T00:04:39;3.60;;;1.20;;
15256;SDS011;7731;50.720;6.912;2023-03-31T00:07:18;4.10;;;1.30;;
15256;SDS011;7731;50.720;6.912;2023-03-31T00:09:50;3.92;;;1.40;;
15256;SDS011;7731;50.720;6.912;2023-03-31T00:12:42;3.55;;;1.40;;
15256;SDS011;7731;50.720;6.912;2023-03-31T00:15:15;3.45;;;0.98;;
15256;SDS011;7731;50.720;6.912;2023-03-31T00:17:45;2.50;;;1.05;;
15256;SDS011;7731;50.720;6.912;2023-03-31T00:20:15;3.30;;;1.27;;
15256;SDS011;7731;50.720;6.912;2023-03-31T00:22:48;6.10;;;1.33;;
15256;SDS011;7731;50.720;6.912;2023-03-31T00:25:20;4.35;;;1.48;;
15256;SDS011;7731;50.720;6.912;2023-03-31T00:27:52;3.85;;;1.30;;
15256;SDS011;7731;50.720;6.912;2023-03-31T00:30:27;3.55;;;1.20;;
15256;SDS011;7731;50.720;6.912;2023-03-31T00:32:57;6.30;;;1.48;;
15256;SDS011;7731;50.720;6.912;2023-03-31T00:35:29;3.83;;;0.90;;
15256;SDS011;7731;50.720;6.912;2023-03-31T00:37:59;3.40;;;1.35;;
15256;SDS011;7731;50.720;6.912;2023-03-31T00:40:29;4.10;;;1.30;;
15256;SDS011;7731;50.720;6.912;2023-03-31T00:43:00;4.38;;;1.05;;
15256;SDS011;7731;50.720;6.912;2023-03-31T00:45:34;4.63;;;1.30;;
15256;SDS011;7731;50.720;6.912;2023-03-31T00:48:06;6.15;;;1.40;;
15256;SDS011;7731;50.720;6.912;2023-03-31T00:50:45;4.03;;;1.40;;
15256;SDS011;7731;50.720;6.912;2023-03-31T00:53:23;2.90;;;1.42;;
15256;SDS011;7731;50.720;6.912;2023-03-31T00:56:02;3.40;;;1.10;;
15256;SDS011;7731;50.720;6.912;2023-03-31T00:58:40;3.10;;;1.23;;
15256;SDS011;7731;50.720;6.912;2023-03-31T01:01:19;3.67;;;1.23;;
15256;SDS011;7731;50.720;6.912;2023-03-31T01:03:52;3.53;;;1.10;;
15256;SDS011;7731;50.720;6.912;2023-03-31T01:06:24;3.65;;;1.58;;
15256;SDS011;7731;50.720;6.912;2023-03-31T01:09:00;5.97;;;1.13;;
15256;SDS011;7731;50.720;6.912;2023-03-31T01:11:33;3.45;;;1.48;;
15256;SDS011;7731;50.720;6.912;2023-03-31T01:14:05;5.63;;;1.73;;
15256;SDS011;7731;50.720;6.912;2023-03-31T01:16:38;4.47;;;1.42;;
15256;SDS011;7731;50.720;6.912;2023-03-31T01:19:12;3.58;;;1.38;;
15256;SDS011;7731;50.720;6.912;2023-03-31T01:28:39;6.40;;;1.60;;
15256;SDS011;7731;50.720;6.912;2023-03-31T01:31:25;7.07;;;1.77;;
15256;SDS011;7731;50.720;6.912;2023-03-31T01:41:46;6.38;;;2.05;;
15256;SDS011;7731;50.720;6.912;2023-03-31T01:44:30;8.23;;;2.20;;
15256;SDS011;7731;50.720;6.912;2023-03-31T01:47:13;5.18;;;1.92;;
15256;SDS011;7731;50.720;6.912;2023-03-31T01:49:53;8.32;;;2.05;;
15256;SDS011;7731;50.720;6.912;2023-03-31T01:52:33;10.18;;;2.28;;
15256;SDS011;7731;50.720;6.912;2023-03-31T01:55:13;9.15;;;2.25;;
15256;SDS011;7731;50.720;6.912;2023-03-31T01:58:04;5.70;;;1.58;;
15256;SDS011;7731;50.720;6.912;2023-03-31T02:00:40;6.05;;;1.70;;
15256;SDS011;7731;50.720;6.912;2023-03-31T02:03:23;7.45;;;1.70;;
15256;SDS011;7731;50.720;6.912;2023-03-31T02:06:01;9.13;;;1.83;;
15256;SDS011;7731;50.720;6.912;2023-03-31T02:08:42;6.70;;;1.63;;
15256;SDS011;7731;50.720;6.912;2023-03-31T02:11:19;5.07;;;1.48;;
15256;SDS011;7731;50.720;6.912;2023-03-31T02:13:55;5.80;;;1.63;;
15256;SDS011;7731;50.720;6.912;2023-03-31T02:16:30;6.75;;;1.88;;
15256;SDS011;7731;50.720;6.912;2023-03-31T02:19:07;4.55;;;1.25;;
15256;SDS011;7731;50.720;6.912;2023-03-31T02:21:42;7.05;;;1.17;;
15256;SDS011;7731;50.720;6.912;2023-03-31T02:24:17;3.70;;;1.20;;
15256;SDS011;7731;50.720;6.912;2023-03-31T02:26:53;6.95;;;1.75;;
15256;SDS011;7731;50.720;6.912;2023-03-31T02:29:38;5.07;;;1.70;;
15256;SDS011;7731;50.720;6.912;2023-03-31T02:32:11;4.53;;;1.40;;
15256;SDS011;7731;50.720;6.912;2023-03-31T02:34:49;3.80;;;1.42;;
15256;SDS011;7731;50.720;6.912;2023-03-31T02:37:19;5.30;;;1.42;;
15256;SDS011;7731;50.720;6.912;2023-03-31T02:39:51;4.57;;;1.35;;
15256;SDS011;7731;50.720;6.912;2023-03-31T02:42:25;6.07;;;1.80;;
15256;SDS011;7731;50.720;6.912;2023-03-31T02:45:02;5.55;;;1.52;;
15256;SDS011;7731;50.720;6.912;2023-03-31T02:47:55;2.78;;;1.40;;
15256;SDS011;7731;50.720;6.912;2023-03-31T02:50:27;5.13;;;1.30;;
15256;SDS011;7731;50.720;6.912;2023-03-31T02:53:09;5.50;;;1.38;;
15256;SDS011;7731;50.720;6.912;2023-03-31T02:55:55;5.47;;;1.33;;
15256;SDS011;7731;50.720;6.912;2023-03-31T02:58:50;6.28;;;1.70;;
15256;SDS011;7731;50.720;6.912;2023-03-31T03:01:43;4.85;;;1.45;;
15256;SDS011;7731;50.720;6.912;2023-03-31T03:07:56;5.28;;;2.15;;
15256;SDS011;7731;50.720;6.912;2023-03-31T03:10:39;4.63;;;1.27;;
15256;SDS011;7731;50.720;6.912;2023-03-31T03:13:29;6.28;;;1.95;;
15256;SDS011;7731;50.720;6.912;2023-03-31T03:16:11;5.88;;;1.48;;
15256;SDS011;7731;50.720;6.912;2023-03-31T03:18:59;6.22;;;1.60;;
15256;SDS011;7731;50.720;6.912;2023-03-31T03:21:34;4.50;;;1.50;;
15256;SDS011;7731;50.720;6.912;2023-03-31T03:24:04;4.25;;;1.50;;
15256;SDS011;7731;50.720;6.912;2023-03-31T03:26:37;4.13;;;1.70;;
15256;SDS011;7731;50.720;6.912;2023-03-31T03:29:07;5.70;;;1.45;;
15256;SDS011;7731;50.720;6.912;2023-03-31T03:31:38;5.70;;;1.52;;
15256;SDS011;7731;50.720;6.912;2023-03-31T03:34:11;6.10;;;1.73;;
15256;SDS011;7731;50.720;6.912;2023-03-31T03:36:44;5.60;;;2.10;;
15256;SDS011;7731;50.720;6.912;2023-03-31T03:39:16;5.63;;;1.92;;
15256;SDS011;7731;50.720;6.912;2023-03-31T03:41:46;4.93;;;1.50;;
15256;SDS011;7731;50.720;6.912;2023-03-31T03:44:17;5.22;;;1.92;;
15256;SDS011;7731;50.720;6.912;2023-03-31T03:46:47;4.28;;;1.60;;
15256;SDS011;7731;50.720;6.912;2023-03-31T03:49:20;3.78;;;1.27;;
15256;SDS011;7731;50.720;6.912;2023-03-31T03:51:50;4.60;;;1.30;;
15256;SDS011;7731;50.720;6.912;2023-03-31T03:54:21;2.70;;;1.13;;
15256;SDS011;7731;50.720;6.912;2023-03-31T03:56:51;2.90;;;1.52;;
15256;SDS011;7731;50.720;6.912;2023-03-31T03:59:21;10.55;;;1.70;;
15256;SDS011;7731;50.720;6.912;2023-03-31T04:01:52;4.78;;;1.10;;
15256;SDS011;7731;50.720;6.912;2023-03-31T04:04:24;7.07;;;1.33;;
15256;SDS011;7731;50.720;6.912;2023-03-31T04:06:55;5.38;;;1.45;;
15256;SDS011;7731;50.720;6.912;2023-03-31T04:09:25;4.00;;;1.00;;
15256;SDS011;7731;50.720;6.912;2023-03-31T04:11:56;2.67;;;1.13;;
15256;SDS011;7731;50.720;6.912;2023-03-31T04:14:27;5.80;;;1.15;;
15256;SDS011;7731;50.720;6.912;2023-03-31T04:16:59;2.95;;;1.13;;
15256;SDS011;7731;50.720;6.912;2023-03-31T04:19:32;5.47;;;1.63;;
15256;SDS011;7731;50.720;6.912;2023-03-31T04:22:03;2.33;;;1.20;;
15256;SDS011;7731;50.720;6.912;2023-03-31T04:24:37;2.35;;;1.25;;
15256;SDS011;7731;50.720;6.912;2023-03-31T04:27:07;3.33;;;1.08;;
15256;SDS011;7731;50.720;6.912;2023-03-31T04:29:38;4.30;;;1.35;;
15256;SDS011;7731;50.720;6.912;2023-03-31T04:32:13;4.32;;;1.17;;
15256;SDS011;7731;50.720;6.912;2023-03-31T04:34:51;3.58;;;0.93;;
15256;SDS011;7731;50.720;6.912;2023-03-31T04:37:28;4.15;;;1.20;;
15256;SDS011;7731;50.720;6.912;2023-03-31T04:40:05;2.78;;;1.27;;
15256;SDS011;7731;50.720;6.912;2023-03-31T04:42:41;4.13;;;0.90;;
15256;SDS011;7731;50.720;6.912;2023-03-31T04:45:13;3.40;;;1.17;;
15256;SDS011;7731;50.720;6.912;2023-03-31T04:47:43;3.45;;;1.08;;
15256;SDS011;7731;50.720;6.912;2023-03-31T04:50:18;3.33;;;1.02;;
15256;SDS011;7731;50.720;6.912;2023-03-31T04:52:48;2.78;;;1.00;;
15256;SDS011;7731;50.720;6.912;2023-03-31T04:55:19;4.63;;;1.42;;
15256;SDS011;7731;50.720;6.912;2023-03-31T04:57:49;3.00;;;1.27;;
15256;SDS011;7731;50.720;6.912;2023-03-31T05:00:20;2.10;;;0.90;;
15256;SDS011;7731;50.720;6.912;2023-03-31T05:02:52;3.03;;;0.85;;
15256;SDS011;7731;50.720;6.912;2023-03-31T05:05:25;3.35;;;0.90;;
15256;SDS011;7731;50.720;6.912;2023-03-31T05:07:59;3.67;;;1.20;;
15256;SDS011;7731;50.720;6.912;2023-03-31T05:10:30;3.10;;;0.90;;
15256;SDS011;7731;50.720;6.912;2023-03-31T05:13:00;2.92;;;0.82;;
15256;SDS011;7731;50.720;6.912;2023-03-31T05:15:31;1.60;;;0.80;;
15256;SDS011;7731;50.720;6.912;2023-03-31T05:18:01;2.55;;;0.98;;
15256;SDS011;7731;50.720;6.912;2023-03-31T05:20:36;2.90;;;1.10;;
15256;SDS011;7731;50.720;6.912;2023-03-31T05:23:07;2.75;;;0.95;;
15256;SDS011;7731;50.720;6.912;2023-03-31T05:25:37;2.00;;;0.82;;
15256;SDS011;7731;50.720;6.912;2023-03-31T05:28:08;1.60;;;0.70;;
15256;SDS011;7731;50.720;6.912;2023-03-31T05:30:38;1.80;;;0.80;;
15256;SDS011;7731;50.720;6.912;2023-03-31T05:33:08;1.13;;;0.60;;
15256;SDS011;7731;50.720;6.912;2023-03-31T05:35:42;1.48;;;0.50;;
15256;SDS011;7731;50.720;6.912;2023-03-31T05:38:13;0.77;;;0.43;;
15256;SDS011;7731;50.720;6.912;2023-03-31T05:40:46;1.85;;;0.65;;
15256;SDS011;7731;50.720;6.912;2023-03-31T05:43:16;0.73;;;0.52;;
15256;SDS011;7731;50.720;6.912;2023-03-31T05:45:47;2.85;;;0.60;;
15256;SDS011;7731;50.720;6.912;2023-03-31T05:48:17;2.00;;;1.23;;
15256;SDS011;7731;50.720;6.912;2023-03-31T05:50:50;1.40;;;0.82;;
15256;SDS011;7731;50.720;6.912;2023-03-31T05:53:24;1.38;;;0.93;;
15256;SDS011;7731;50.720;6.912;2023-03-31T05:55:56;1.25;;;0.65;;
15256;SDS011;7731;50.720;6.912;2023-03-31T05:58:27;1.15;;;0.60;;
15256;SDS011;7731;50.720;6.912;2023-03-31T06:00:59;1.25;;;0.60;;
15256;SDS011;7731;50.720;6.912;2023-03-31T06:03:35;1.98;;;0.90;;
15256;SDS011;7731;50.720;6.912;2023-03-31T06:06:11;1.08;;;0.50;;
15256;SDS011;7731;50.720;6.912;2023-03-31T06:08:42;3.40;;;1.40;;
15256;SDS011;7731;50.720;6.912;2023-03-31T06:11:14;1.65;;;0.80;;
15256;SDS011;7731;50.720;6.912;2023-03-31T06:13:48;2.38;;;1.20;;
15256;SDS011;7731;50.720;6.912;2023-03-31T06:16:19;0.82;;;0.68;;
15256;SDS011;7731;50.720;6.912;2023-03-31T06:18:49;2.28;;;1.25;;
15256;SDS011;7731;50.720;6.912;2023-03-31T06:21:23;2.40;;;1.17;;
15256;SDS011;7731;50.720;6.912;2023-03-31T06:23:54;1.52;;;0.98;;
15256;SDS011;7731;50.720;6.912;2023-03-31T06:26:25;2.50;;;1.00;;
15256;SDS011;7731;50.720;6.912;2023-03-31T06:28:56;1.10;;;0.82;;
15256;SDS011;7731;50.720;6.912;2023-03-31T06:31:27;2.13;;;0.98;;
15256;SDS011;7731;50.720;6.912;2023-03-31T06:33:57;2.65;;;0.93;;
15256;SDS011;7731;50.720;6.912;2023-03-31T06:36:30;1.75;;;0.80;;
15256;SDS011;7731;50.720;6.912;2023-03-31T06:39:01;0.90;;;0.47;;
15256;SDS011;7731;50.720;6.912;2023-03-31T06:41:31;1.95;;;0.60;;
15256;SDS011;7731;50.720;6.912;2023-03-31T06:44:02;1.30;;;0.90;;
15256;SDS011;7731;50.720;6.912;2023-03-31T06:46:36;1.05;;;0.60;;
15256;SDS011;7731;50.720;6.912;2023-03-31T06:49:06;1.17;;;0.80;;
15256;SDS011;7731;50.720;6.912;2023-03-31T06:51:39;1.40;;;0.80;;
15256;SDS011;7731;50.720;6.912;2023-03-31T06:54:09;1.08;;;0.95;;
15256;SDS011;7731;50.720;6.912;2023-03-31T06:56:41;1.13;;;0.50;;
15256;SDS011;7731;50.720;6.912;2023-03-31T06:59:11;1.10;;;0.85;;
15256;SDS011;7731;50.720;6.912;2023-03-31T07:01:41;1.50;;;0.60;;
15256;SDS011;7731;50.720;6.912;2023-03-31T07:04:14;2.40;;;0.60;;
15256;SDS011;7731;50.720;6.912;2023-03-31T07:06:47;0.40;;;0.40;;
15256;SDS011;7731;50.720;6.912;2023-03-31T07:09:17;1.35;;;0.77;;
15256;SDS011;7731;50.720;6.912;2023-03-31T07:11:49;1.90;;;0.43;;
15256;SDS011;7731;50.720;6.912;2023-03-31T07:14:22;1.77;;;0.73;;
15256;SDS011;7731;50.720;6.912;2023-03-31T07:16:52;1.25;;;0.90;;
15256;SDS011;7731;50.720;6.912;2023-03-31T07:19:23;0.88;;;0.50;;
15256;SDS011;7731;50.720;6.912;2023-03-31T07:21:56;1.23;;;0.70;;
15256;SDS011;7731;50.720;6.912;2023-03-31T07:24:26;0.88;;;0.68;;
15256;SDS011;7731;50.720;6.912;2023-03-31T07:26:56;2.70;;;0.95;;
15256;SDS011;7731;50.720;6.912;2023-03-31T07:29:27;1.33;;;0.77;;
15256;SDS011;7731;50.720;6.912;2023-03-31T07:31:57;1.98;;;0.90;;
15256;SDS011;7731;50.720;6.912;2023-03-31T07:34:27;1.27;;;0.77;;
15256;SDS011;7731;50.720;6.912;2023-03-31T07:37:05;2.22;;;1.20;;
15256;SDS011;7731;50.720;6.912;2023-03-31T07:39:36;1.98;;;1.10;;
15256;SDS011;7731;50.720;6.912;2023-03-31T07:42:06;2.15;;;1.00;;
15256;SDS011;7731;50.720;6.912;2023-03-31T07:44:36;4.47;;;1.10;;
15256;SDS011;7731;50.720;6.912;2023-03-31T07:47:07;1.45;;;0.60;;
15256;SDS011;7731;50.720;6.912;2023-03-31T07:49:37;1.50;;;0.60;;
15256;SDS011;7731;50.720;6.912;2023-03-31T07:52:12;1.40;;;0.80;;
15256;SDS011;7731;50.720;6.912;2023-03-31T07:54:42;2.33;;;0.93;;
15256;SDS011;7731;50.720;6.912;2023-03-31T07:57:16;4.35;;;0.90;;
15256;SDS011;7731;50.720;6.912;2023-03-31T07:59:47;3.67;;;1.00;;
15256;SDS011;7731;50.720;6.912;2023-03-31T08:02:20;1.95;;;0.82;;
15256;SDS011;7731;50.720;6.912;2023-03-31T08:04:51;4.30;;;1.10;;
15256;SDS011;7731;50.720;6.912;2023-03-31T08:07:24;3.53;;;1.00;;
15256;SDS011;7731;50.720;6.912;2023-03-31T08:09:57;2.55;;;1.20;;
15256;SDS011;7731;50.720;6.912;2023-03-31T08:12:27;3.28;;;1.13;;
15256;SDS011;7731;50.720;6.912;2023-03-31T08:14:58;4.22;;;1.20;;
15256;SDS011;7731;50.720;6.912;2023-03-31T08:17:28;1.52;;;0.85;;
15256;SDS011;7731;50.720;6.912;2023-03-31T08:19:59;5.18;;;1.50;;
15256;SDS011;7731;50.720;6.912;2023-03-31T08:22:36;2.95;;;1.05;;
15256;SDS011;7731;50.720;6.912;2023-03-31T08:25:09;4.28;;;0.98;;
15256;SDS011;7731;50.720;6.912;2023-03-31T08:27:39;2.63;;;1.08;;
15256;SDS011;7731;50.720;6.912;2023-03-31T08:30:10;4.15;;;1.10;;
15256;SDS011;7731;50.720;6.912;2023-03-31T08:32:42;3.70;;;1.10;;
15256;SDS011;7731;50.720;6.912;2023-03-31T08:35:12;5.97;;;1.20;;
15256;SDS011;7731;50.720;6.912;2023-03-31T08:37:45;3.30;;;1.20;;
15256;SDS011;7731;50.720;6.912;2023-03-31T08:40:21;4.13;;;1.40;;
15256;SDS011;7731;50.720;6.912;2023-03-31T08:42:56;4.95;;;1.33;;
15256;SDS011;7731;50.720;6.912;2023-03-31T08:45:36;4.15;;;1.50;;
15256;SDS011;7731;50.720;6.912;2023-03-31T08:48:14;3.80;;;1.98;;
15256;SDS011;7731;50.720;6.912;2023-03-31T08:50:55;4.45;;;1.50;;
15256;SDS011;7731;50.720;6.912;2023-03-31T08:53:35;3.67;;;1.60;;
15256;SDS011;7731;50.720;6.912;2023-03-31T08:56:14;7.28;;;2.35;;
15256;SDS011;7731;50.720;6.912;2023-03-31T08:58:48;3.55;;;1.70;;
15256;SDS011;7731;50.720;6.912;2023-03-31T09:01:23;5.53;;;1.60;;
15256;SDS011;7731;50.720;6.912;2023-03-31T09:04:21;6.63;;;1.90;;
15256;SDS011;7731;50.720;6.912;2023-03-31T09:07:18;6.93;;;2.05;;
15256;SDS011;7731;50.720;6.912;2023-03-31T09:10:06;7.43;;;2.25;;
15256;SDS011;7731;50.720;6.912;2023-03-31T09:12:55;4.00;;;1.80;;
15256;SDS011;7731;50.720;6.912;2023-03-31T09:15:41;5.18;;;1.88;;
15256;SDS011;7731;50.720;6.912;2023-03-31T09:18:22;6.15;;;1.75;;
15256;SDS011;7731;50.720;6.912;2023-03-31T09:21:06;5.85;;;1.80;;
15256;SDS011;7731;50.720;6.912;2023-03-31T09:23:45;5.22;;;2.20;;
15256;SDS011;7731;50.720;6.912;2023-03-31T09:26:30;6.68;;;1.90;;
15256;SDS011;7731;50.720;6.912;2023-03-31T09:29:10;6.88;;;2.00;;
15256;SDS011;7731;50.720;6.912;2023-03-31T09:31:46;6.47;;;2.33;;
15256;SDS011;7731;50.720;6.912;2023-03-31T09:34:18;6.35;;;1.85;;
15256;SDS011;7731;50.720;6.912;2023-03-31T09:36:54;7.38;;;2.17;;
15256;SDS011;7731;50.720;6.912;2023-03-31T09:39:24;5.93;;;1.83;;
15256;SDS011;7731;50.720;6.912;2023-03-31T09:41:57;7.35;;;2.47;;
15256;SDS011;7731;50.720;6.912;2023-03-31T09:44:30;8.15;;;2.45;;
15256;SDS011;7731;50.720;6.912;2023-03-31T09:47:11;6.63;;;2.28;;
15256;SDS011;7731;50.720;6.912;2023-03-31T09:49:49;6.30;;;2.00;;
15256;SDS011;7731;50.720;6.912;2023-03-31T09:52:23;6.18;;;1.95;;
15256;SDS011;7731;50.720;6.912;2023-03-31T09:54:59;5.72;;;1.88;;
15256;SDS011;7731;50.720;6.912;2023-03-31T09:57:37;13.00;;;2.25;;
15256;SDS011;7731;50.720;6.912;2023-03-31T10:00:13;6.95;;;2.13;;
15256;SDS011;7731;50.720;6.912;2023-03-31T10:02:47;5.35;;;1.52;;
15256;SDS011;7731;50.720;6.912;2023-03-31T10:05:23;4.15;;;1.50;;
15256;SDS011;7731;50.720;6.912;2023-03-31T10:11:06;4.40;;;1.75;;
15256;SDS011;7731;50.720;6.912;2023-03-31T10:13:47;7.35;;;1.85;;
15256;SDS011;7731;50.720;6.912;2023-03-31T10:16:27;9.18;;;1.85;;
15256;SDS011;7731;50.720;6.912;2023-03-31T10:19:10;6.00;;;1.05;;
15256;SDS011;7731;50.720;6.912;2023-03-31T10:21:48;4.88;;;1.55;;
15256;SDS011;7731;50.720;6.912;2023-03-31T10:24:27;4.20;;;1.58;;
15256;SDS011;7731;50.720;6.912;2023-03-31T10:27:12;3.45;;;1.25;;
15256;SDS011;7731;50.720;6.912;2023-03-31T10:29:54;3.72;;;1.27;;
15256;SDS011;7731;50.720;6.912;2023-03-31T10:32:27;7.43;;;1.40;;
15256;SDS011;7731;50.720;6.912;2023-03-31T10:35:03;6.22;;;1.40;;
15256;SDS011;7731;50.720;6.912;2023-03-31T10:37:41;5.20;;;1.60;;
15256;SDS011;7731;50.720;6.912;2023-03-31T10:40:12;2.85;;;1.35;;
15256;SDS011;7731;50.720;6.912;2023-03-31T10:42:58;3.75;;;1.50;;
15256;SDS011;7731;50.720;6.912;2023-03-31T10:45:40;8.45;;;2.03;;
15256;SDS011;7731;50.720;6.912;2023-03-31T10:48:18;5.50;;;1.50;;
15256;SDS011;7731;50.720;6.912;2023-03-31T10:50:57;4.20;;;1.08;;
15256;SDS011;7731;50.720;6.912;2023-03-31T10:53:38;4.60;;;1.52;;
15256;SDS011;7731;50.720;6.912;2023-03-31T10:56:14;3.92;;;1.50;;
15256;SDS011;7731;50.720;6.912;2023-03-31T10:59:12;6.22;;;1.90;;
15256;SDS011;7731;50.720;6.912;2023-03-31T11:02:04;3.55;;;1.13;;
15256;SDS011;7731;50.720;6.912;2023-03-31T11:05:21;3.47;;;1.20;;
15256;SDS011;7731;50.720;6.912;2023-03-31T11:08:15;3.28;;;0.90;;
15256;SDS011;7731;50.720;6.912;2023-03-31T11:11:18;4.43;;;1.50;;
15256;SDS011;7731;50.720;6.912;2023-03-31T11:14:19;4.88;;;1.33;;
15256;SDS011;7731;50.720;6.912;2023-03-31T11:17:19;3.35;;;1.02;;
15256;SDS011;7731;50.720;6.912;2023-03-31T11:20:08;3.50;;;1.40;;
15256;SDS011;7731;50.720;6.912;2023-03-31T11:22:58;4.05;;;1.23;;
15256;SDS011;7731;50.720;6.912;2023-03-31T11:25:39;3.83;;;1.10;;
15256;SDS011;7731;50.720;6.912;2023-03-31T11:28:25;6.43;;;2.63;;
15256;SDS011;7731;50.720;6.912;2023-03-31T11:31:31;7.68;;;1.85;;
15256;SDS011;7731;50.720;6.912;2023-03-31T11:34:19;4.13;;;2.03;;
15256;SDS011;7731;50.720;6.912;2023-03-31T11:40:36;6.22;;;1.88;;
15256;SDS011;7731;50.720;6.912;2023-03-31T11:43:23;6.32;;;1.70;;
15256;SDS011;7731;50.720;6.912;2023-03-31T11:46:02;6.57;;;1.92;;
15256;SDS011;7731;50.720;6.912;2023-03-31T11:48:39;8.48;;;2.60;;
15256;SDS011;7731;50.720;6.912;2023-03-31T11:51:25;7.95;;;1.85;;
15256;SDS011;7731;50.720;6.912;2023-03-31T11:54:03;1.73;;;0.60;;
15256;SDS011;7731;50.720;6.912;2023-03-31T11:56:38;1.65;;;0.65;;
15256;SDS011;7731;50.720;6.912;2023-03-31T11:59:10;9.80;;;4.32;;
15256;SDS011;7731;50.720;6.912;2023-03-31T12:01:47;21.45;;;14.82;;
15256;SDS011;7731;50.720;6.912;2023-03-31T12:04:28;17.35;;;10.85;;
15256;SDS011;7731;50.720;6.912;2023-03-31T12:07:12;19.13;;;13.85;;
15256;SDS011;7731;50.720;6.912;2023-03-31T12:09:59;4.15;;;2.05;;
15256;SDS011;7731;50.720;6.912;2023-03-31T12:12:41;2.72;;;1.70;;
15256;SDS011;7731;50.720;6.912;2023-03-31T12:15:19;1.67;;;0.73;;
15256;SDS011;7731;50.720;6.912;2023-03-31T12:17:58;2.50;;;0.98;;
15256;SDS011;7731;50.720;6.912;2023-03-31T12:20:38;5.03;;;1.20;;
15256;SDS011;7731;50.720;6.912;2023-03-31T12:23:19;5.63;;;1.17;;
15256;SDS011;7731;50.720;6.912;2023-03-31T12:25:58;5.07;;;1.38;;
15256;SDS011;7731;50.720;6.912;2023-03-31T12:28:44;5.05;;;1.20;;
15256;SDS011;7731;50.720;6.912;2023-03-31T12:31:21;5.88;;;1.17;;
15256;SDS011;7731;50.720;6.912;2023-03-31T12:33:59;3.75;;;1.02;;
15256;SDS011;7731;50.720;6.912;2023-03-31T12:36:40;3.42;;;1.30;;
15256;SDS011;7731;50.720;6.912;2023-03-31T12:39:33;4.78;;;1.20;;
15256;SDS011;7731;50.720;6.912;2023-03-31T12:45:52;5.72;;;2.00;;
15256;SDS011;7731;50.720;6.912;2023-03-31T12:48:41;5.22;;;1.70;;
15256;SDS011;7731;50.720;6.912;2023-03-31T12:51:34;6.63;;;2.10;;
15256;SDS011;7731;50.720;6.912;2023-03-31T13:01:15;8.38;;;2.30;;
15256;SDS011;7731;50.720;6.912;2023-03-31T13:04:47;5.15;;;2.03;;
15256;SDS011;7731;50.720;6.912;2023-03-31T13:10:26;5.90;;;1.58;;
15256;SDS011;7731;50.720;6.912;2023-03-31T13:13:00;3.88;;;1.65;;
15256;SDS011;7731;50.720;6.912;2023-03-31T13:15:33;7.05;;;1.75;;
15256;SDS011;7731;50.720;6.912;2023-03-31T13:18:05;4.93;;;1.38;;
15256;SDS011;7731;50.720;6.912;2023-03-31T13:20:37;5.25;;;1.63;;
15256;SDS011;7731;50.720;6.912;2023-03-31T13:23:15;6.45;;;1.60;;
15256;SDS011;7731;50.720;6.912;2023-03-31T13:25:53;5.78;;;2.08;;
15256;SDS011;7731;50.720;6.912;2023-03-31T13:28:26;7.22;;;2.05;;
15256;SDS011;7731;50.720;6.912;2023-03-31T13:31:12;6.63;;;2.25;;
15256;SDS011;7731;50.720;6.912;2023-03-31T13:33:45;5.00;;;1.88;;
15256;SDS011;7731;50.720;6.912;2023-03-31T13:39:45;3.67;;;1.65;;
15256;SDS011;7731;50.720;6.912;2023-03-31T13:42:45;5.78;;;1.55;;
15256;SDS011;7731;50.720;6.912;2023-03-31T13:45:53;4.03;;;1.30;;
15256;SDS011;7731;50.720;6.912;2023-03-31T13:48:49;5.13;;;1.50;;
15256;SDS011;7731;50.720;6.912;2023-03-31T13:51:41;3.90;;;1.38;;
15256;SDS011;7731;50.720;6.912;2023-03-31T13:54:43;5.40;;;1.35;;
15256;SDS011;7731;50.720;6.912;2023-03-31T14:07:52;3.55;;;1.00;;
15256;SDS011;7731;50.720;6.912;2023-03-31T14:10:28;6.90;;;1.23;;
15256;SDS011;7731;50.720;6.912;2023-03-31T14:13:09;4.35;;;1.70;;
15256;SDS011;7731;50.720;6.912;2023-03-31T14:15:45;4.20;;;1.50;;
15256;SDS011;7731;50.720;6.912;2023-03-31T14:18:23;4.10;;;1.20;;
15256;SDS011;7731;50.720;6.912;2023-03-31T14:21:02;5.28;;;1.60;;
15256;SDS011;7731;50.720;6.912;2023-03-31T14:23:50;4.68;;;1.50;;
15256;SDS011;7731;50.720;6.912;2023-03-31T14:26:41;3.80;;;1.40;;
15256;SDS011;7731;50.720;6.912;2023-03-31T14:29:27;6.10;;;1.38;;
15256;SDS011;7731;50.720;6.912;2023-03-31T14:32:10;3.78;;;1.10;;
15256;SDS011;7731;50.720;6.912;2023-03-31T14:34:59;2.95;;;1.05;;
15256;SDS011;7731;50.720;6.912;2023-03-31T14:37:54;2.97;;;1.38;;
15256;SDS011;7731;50.720;6.912;2023-03-31T14:40:26;3.70;;;0.88;;
15256;SDS011;7731;50.720;6.912;2023-03-31T14:42:56;5.18;;;1.10;;
15256;SDS011;7731;50.720;6.912;2023-03-31T14:45:29;2.65;;;1.13;;
15256;SDS011;7731;50.720;6.912;2023-03-31T14:48:02;4.90;;;1.42;;
15256;SDS011;7731;50.720;6.912;2023-03-31T14:50:44;3.65;;;1.27;;
15256;SDS011;7731;50.720;6.912;2023-03-31T14:53:15;5.28;;;1.58;;
15256;SDS011;7731;50.720;6.912;2023-03-31T14:55:52;5.55;;;1.52;;
15256;SDS011;7731;50.720;6.912;2023-03-31T14:58:35;6.80;;;2.00;;
15256;SDS011;7731;50.720;6.912;2023-03-31T15:01:12;4.35;;;1.55;;
15256;SDS011;7731;50.720;6.912;2023-03-31T15:03:49;6.10;;;1.52;;
15256;SDS011;7731;50.720;6.912;2023-03-31T15:06:25;7.32;;;2.33;;
15256;SDS011;7731;50.720;6.912;2023-03-31T15:09:00;4.95;;;1.33;;
15256;SDS011;7731;50.720;6.912;2023-03-31T15:11:32;3.17;;;1.50;;
15256;SDS011;7731;50.720;6.912;2023-03-31T15:14:02;2.92;;;1.25;;
15256;SDS011;7731;50.720;6.912;2023-03-31T15:16:35;4.68;;;1.33;;
15256;SDS011;7731;50.720;6.912;2023-03-31T15:19:12;4.97;;;1.38;;
15256;SDS011;7731;50.720;6.912;2023-03-31T15:21:52;2.95;;;1.30;;
15256;SDS011;7731;50.720;6.912;2023-03-31T15:24:27;4.55;;;1.27;;
15256;SDS011;7731;50.720;6.912;2023-03-31T15:27:00;4.65;;;1.25;;
15256;SDS011;7731;50.720;6.912;2023-03-31T15:29:42;3.70;;;1.30;;
15256;SDS011;7731;50.720;6.912;2023-03-31T15:32:16;5.75;;;2.00;;
15256;SDS011;7731;50.720;6.912;2023-03-31T15:34:54;25.95;;;12.40;;
15256;SDS011;7731;50.720;6.912;2023-03-31T15:37:53;11.15;;;4.38;;
15256;SDS011;7731;50.720;6.912;2023-03-31T15:40:27;4.97;;;2.53;;
15256;SDS011;7731;50.720;6.912;2023-03-31T15:43:02;4.28;;;1.70;;
15256;SDS011;7731;50.720;6.912;2023-03-31T15:45:51;2.03;;;0.82;;
15256;SDS011;7731;50.720;6.912;2023-03-31T15:48:27;3.85;;;1.33;;
15256;SDS011;7731;50.720;6.912;2023-03-31T15:51:02;3.78;;;1.10;;
15256;SDS011;7731;50.720;6.912;2023-03-31T15:53:49;4.65;;;1.30;;
15256;SDS011;7731;50.720;6.912;2023-03-31T15:56:28;2.83;;;1.00;;
15256;SDS011;7731;50.720;6.912;2023-03-31T15:59:03;4.15;;;1.10;;
15256;SDS011;7731;50.720;6.912;2023-03-31T16:01:37;2.70;;;1.02;;
15256;SDS011;7731;50.720;6.912;2023-03-31T16:04:14;2.63;;;1.13;;
15256;SDS011;7731;50.720;6.912;2023-03-31T16:06:46;3.25;;;1.30;;
15256;SDS011;7731;50.720;6.912;2023-03-31T16:09:27;1.67;;;0.90;;
15256;SDS011;7731;50.720;6.912;2023-03-31T16:12:17;2.40;;;0.85;;
15256;SDS011;7731;50.720;6.912;2023-03-31T16:14:54;3.15;;;0.90;;
15256;SDS011;7731;50.720;6.912;2023-03-31T16:17:31;1.25;;;0.70;;
15256;SDS011;7731;50.720;6.912;2023-03-31T16:20:09;1.35;;;0.88;;
15256;SDS011;7731;50.720;6.912;2023-03-31T16:22:50;2.30;;;0.68;;
15256;SDS011;7731;50.720;6.912;2023-03-31T16:25:27;2.67;;;0.70;;
15256;SDS011;7731;50.720;6.912;2023-03-31T16:28:12;3.67;;;0.77;;
15256;SDS011;7731;50.720;6.912;2023-03-31T16:30:46;1.75;;;0.88;;
15256;SDS011;7731;50.720;6.912;2023-03-31T16:33:18;1.58;;;0.82;;
15256;SDS011;7731;50.720;6.912;2023-03-31T16:35:51;1.67;;;0.63;;
15256;SDS011;7731;50.720;6.912;2023-03-31T16:38:25;2.28;;;0.82;;
15256;SDS011;7731;50.720;6.912;2023-03-31T16:41:00;1.38;;;0.70;;
15256;SDS011;7731;50.720;6.912;2023-03-31T16:43:30;2.55;;;1.17;;
15256;SDS011;7731;50.720;6.912;2023-03-31T16:46:01;2.60;;;0.90;;
15256;SDS011;7731;50.720;6.912;2023-03-31T16:48:32;1.60;;;0.80;;
15256;SDS011;7731;50.720;6.912;2023-03-31T16:51:02;2.35;;;0.73;;
15256;SDS011;7731;50.720;6.912;2023-03-31T16:53:35;2.22;;;1.10;;